메인 페이지
METAR-TAF:

METAR-TAF

공항 :

쿤밍 창수이 국제공항

쿤밍, 중국

위도: 25-01N, 경도: 102-41E, 고도: 1892m

현재 날씨관측

예보는 53분 전, 20:00시(UTC)에 발표되었습니다.
여러 방향의 바람 2kt
온도 16°C
습도 94%
기압 1016 hPa
시정: 5000m
박무

METAR: ZPPP 202000Z VRB01MPS 5000 BR NSC 16/15 Q1016 NOSIG

시각: 04:53 (20:53 UTC)

예보

예보는 7 시간 36분 전, 13:17시(UTC)에 발표되었습니다.
예보 대상 시간: 20일 18시부터 21일 18시까지 (UTC)
남서8kt
시정 10km 이상
고도 2600ft 상공 구름 보통
고도 4000ft 상공 구름 많음

TAF: ZPPP 201317Z 2018/2118 22004MPS 9999 SCT026 BKN040 TX25/2108Z TN14/2023Z

4,000개 이상의 공항 관측 자료 및 예보 (METAR 및 TAF 보고).

지도상에서 검색 가능한 기상관측소가 노란 점과 빨간 점으로 표시되어 있습니다.

기상관측소 명을 보려면 표시 위로 마우스를 이동하세요.

날씨 관측과 예보를 보려면 클릭하세요.

지도 변경 : 확대하려면 엑스 표시가 있는 녹색 버튼, 축소하려면 빼기 표시가 있는 녹색 버튼, 다음 페이지의 지도를 보려면 녹색 화살표를 클릭하세요.


METAR-TAF: